sensor_id;sensor_type;location;lat;lon;timestamp;pressure;altitude;pressure_sealevel;temperature;humidity
64243;BME280;50573;51.512;5.386;2023-11-19T00:06:03;168088.84;;;13.42;100.00
64243;BME280;50573;51.512;5.386;2023-11-19T00:16:08;168099.50;;;13.46;100.00
64243;BME280;50573;51.512;5.386;2023-11-19T00:26:12;168108.81;;;13.50;100.00
64243;BME280;50573;51.512;5.386;2023-11-19T00:36:21;168112.78;;;13.51;100.00
64243;BME280;50573;51.512;5.386;2023-11-19T00:46:25;168100.84;;;13.47;100.00
64243;BME280;50573;51.512;5.386;2023-11-19T00:56:31;168084.88;;;13.41;100.00
64243;BME280;50573;51.512;5.386;2023-11-19T01:06:34;168072.94;;;13.36;100.00
64243;BME280;50573;51.512;5.386;2023-11-19T01:16:38;168068.97;;;13.35;100.00
64243;BME280;50573;51.512;5.386;2023-11-19T01:26:41;168063.66;;;13.33;100.00
64243;BME280;50573;51.512;5.386;2023-11-19T01:36:48;168061.00;;;13.32;100.00
64243;BME280;50573;51.512;5.386;2023-11-19T01:46:52;168035.78;;;13.22;100.00
64243;BME280;50573;51.512;5.386;2023-11-19T01:56:57;168050.34;;;13.28;100.00
64243;BME280;50573;51.512;5.386;2023-11-19T02:07:00;168058.38;;;13.31;100.00
64243;BME280;50573;51.512;5.386;2023-11-19T02:17:05;168078.28;;;13.38;100.00
64243;BME280;50573;51.512;5.386;2023-11-19T02:27:12;167978.69;;;13.01;100.00
64243;BME280;50573;51.512;5.386;2023-11-19T02:37:20;167913.59;;;12.76;100.00
64243;BME280;50573;51.512;5.386;2023-11-19T02:47:23;167844.59;;;12.50;100.00
64243;BME280;50573;51.512;5.386;2023-11-19T02:57:32;167807.44;;;12.36;100.00
64243;BME280;50573;51.512;5.386;2023-11-19T03:07:36;167775.59;;;12.24;100.00
64243;BME280;50573;51.512;5.386;2023-11-19T03:17:41;167758.34;;;12.17;100.00
64243;BME280;50573;51.512;5.386;2023-11-19T03:27:44;167738.44;;;12.10;100.00
64243;BME280;50573;51.512;5.386;2023-11-19T03:37:49;167743.78;;;12.12;100.00
64243;BME280;50573;51.512;5.386;2023-11-19T03:47:52;167729.16;;;12.06;100.00
64243;BME280;50573;51.512;5.386;2023-11-19T03:57:57;167698.66;;;11.95;100.00
64243;BME280;50573;51.512;5.386;2023-11-19T04:08:00;167674.78;;;11.86;100.00
64243;BME280;50573;51.512;5.386;2023-11-19T04:18:04;167658.88;;;11.80;100.00
64243;BME280;50573;51.512;5.386;2023-11-19T04:28:07;167666.84;;;11.83;100.00
64243;BME280;50573;51.512;5.386;2023-11-19T04:38:12;167649.59;;;11.76;100.00
64243;BME280;50573;51.512;5.386;2023-11-19T04:48:16;167649.59;;;11.76;100.00
64243;BME280;50573;51.512;5.386;2023-11-19T04:58:20;167650.94;;;11.77;100.00
64243;BME280;50573;51.512;5.386;2023-11-19T05:08:23;167625.69;;;11.67;100.00
64243;BME280;50573;51.512;5.386;2023-11-19T05:18:28;167608.41;;;11.61;100.00
64243;BME280;50573;51.512;5.386;2023-11-19T05:28:31;167589.88;;;11.54;100.00
64243;BME280;50573;51.512;5.386;2023-11-19T05:38:36;167592.50;;;11.55;100.00
64243;BME280;50573;51.512;5.386;2023-11-19T05:48:39;167573.97;;;11.48;100.00
64243;BME280;50573;51.512;5.386;2023-11-19T05:58:43;167560.69;;;11.43;100.00
64243;BME280;50573;51.512;5.386;2023-11-19T06:08:46;167546.09;;;11.37;100.00
64243;BME280;50573;51.512;5.386;2023-11-19T06:18:51;167524.88;;;11.29;100.00
64243;BME280;50573;51.512;5.386;2023-11-19T06:28:55;167493.03;;;11.17;100.00
64243;BME280;50573;51.512;5.386;2023-11-19T06:38:59;167491.75;;;11.16;100.00
64243;BME280;50573;51.512;5.386;2023-11-19T06:49:02;167483.81;;;11.13;100.00
64243;BME280;50573;51.512;5.386;2023-11-19T06:59:07;167458.56;;;11.04;100.00
64243;BME280;50573;51.512;5.386;2023-11-19T07:09:10;167463.88;;;11.06;100.00
64243;BME280;50573;51.512;5.386;2023-11-19T07:19:14;167457.28;;;11.03;100.00
64243;BME280;50573;51.512;5.386;2023-11-19T07:29:17;167467.84;;;11.07;100.00
64243;BME280;50573;51.512;5.386;2023-11-19T07:39:25;167478.47;;;11.11;100.00
64243;BME280;50573;51.512;5.386;2023-11-19T07:49:27;167494.38;;;11.17;100.00
64243;BME280;50573;51.512;5.386;2023-11-19T07:59:33;167505.00;;;11.22;100.00
64243;BME280;50573;51.512;5.386;2023-11-19T08:09:36;167527.50;;;11.30;100.00
64243;BME280;50573;51.512;5.386;2023-11-19T08:19:41;167551.41;;;11.39;100.00
64243;BME280;50573;51.512;5.386;2023-11-19T08:29:44;167580.56;;;11.50;100.00
64243;BME280;50573;51.512;5.386;2023-11-19T08:39:49;167605.75;;;11.60;100.00
64243;BME280;50573;51.512;5.386;2023-11-19T08:49:52;167645.63;;;11.75;100.00
64243;BME280;50573;51.512;5.386;2023-11-19T09:00:01;167681.41;;;11.88;100.00
64243;BME280;50573;51.512;5.386;2023-11-19T09:10:05;167725.19;;;12.05;100.00
64243;BME280;50573;51.512;5.386;2023-11-19T09:20:12;167812.75;;;12.38;100.00
64243;BME280;50573;51.512;5.386;2023-11-19T09:30:21;167861.84;;;12.56;100.00
64243;BME280;50573;51.512;5.386;2023-11-19T09:40:26;167873.81;;;12.61;100.00
64243;BME280;50573;51.512;5.386;2023-11-19T09:50:31;167937.50;;;12.85;100.00
64243;BME280;50573;51.512;5.386;2023-11-19T10:00:39;168006.59;;;13.11;100.00
64243;BME280;50573;51.512;5.386;2023-11-19T10:10:44;168072.94;;;13.36;100.00
64243;BME280;50573;51.512;5.386;2023-11-19T10:20:50;168092.84;;;13.44;100.00
64243;BME280;50573;51.512;5.386;2023-11-19T10:30:56;168098.16;;;13.46;100.00
64243;BME280;50573;51.512;5.386;2023-11-19T10:41:01;168103.47;;;13.48;100.00
64243;BME280;50573;51.512;5.386;2023-11-19T10:51:04;168131.34;;;13.58;100.00
64243;BME280;50573;51.512;5.386;2023-11-19T11:01:13;168161.91;;;13.70;100.00
64243;BME280;50573;51.512;5.386;2023-11-19T11:11:19;168171.19;;;13.73;100.00
64243;BME280;50573;51.512;5.386;2023-11-19T11:21:25;168111.44;;;13.51;100.00
64243;BME280;50573;51.512;5.386;2023-11-19T11:31:36;168059.66;;;13.31;100.00
64243;BME280;50573;51.512;5.386;2023-11-19T11:41:43;167906.97;;;12.74;100.00
64243;BME280;50573;51.512;5.386;2023-11-19T11:52:02;167934.81;;;12.84;100.00
64243;BME280;50573;51.512;5.386;2023-11-19T12:02:12;168006.59;;;13.11;100.00
64243;BME280;50573;51.512;5.386;2023-11-19T12:12:21;168070.31;;;13.35;100.00
64243;BME280;50573;51.512;5.386;2023-11-19T12:22:26;168086.22;;;13.41;100.00
64243;BME280;50573;51.512;5.386;2023-11-19T12:32:38;168072.94;;;13.36;100.00
64243;BME280;50573;51.512;5.386;2023-11-19T12:42:43;168067.63;;;13.34;100.00
64243;BME280;50573;51.512;5.386;2023-11-19T12:52:58;168095.53;;;13.45;100.00
64243;BME280;50573;51.512;5.386;2023-11-19T13:03:03;168098.16;;;13.46;100.00
64243;BME280;50573;51.512;5.386;2023-11-19T13:13:07;168051.69;;;13.28;100.00
64243;BME280;50573;51.512;5.386;2023-11-19T13:23:12;168050.34;;;13.28;100.00
64243;BME280;50573;51.512;5.386;2023-11-19T13:33:18;168011.88;;;13.13;100.00
64243;BME280;50573;51.512;5.386;2023-11-19T13:43:23;167958.75;;;12.93;100.00
64243;BME280;50573;51.512;5.386;2023-11-19T13:53:26;167969.34;;;12.97;100.00
64243;BME280;50573;51.512;5.386;2023-11-19T14:03:30;167978.69;;;13.01;100.00
64243;BME280;50573;51.512;5.386;2023-11-19T14:13:35;167962.72;;;12.95;100.00
64243;BME280;50573;51.512;5.386;2023-11-19T14:23:40;167964.00;;;12.95;100.00
64243;BME280;50573;51.512;5.386;2023-11-19T14:33:43;167976.00;;;13.00;100.00
64243;BME280;50573;51.512;5.386;2023-11-19T14:43:47;167934.81;;;12.84;100.00
64243;BME280;50573;51.512;5.386;2023-11-19T14:53:50;167918.91;;;12.78;100.00
64243;BME280;50573;51.512;5.386;2023-11-19T15:03:54;167873.81;;;12.61;100.00
64243;BME280;50573;51.512;5.386;2023-11-19T15:14:02;167800.84;;;12.33;100.00
64243;BME280;50573;51.512;5.386;2023-11-19T15:24:09;167762.38;;;12.19;100.00
64243;BME280;50573;51.512;5.386;2023-11-19T15:34:12;167711.91;;;12.00;100.00
64243;BME280;50573;51.512;5.386;2023-11-19T15:44:16;167721.22;;;12.03;100.00
64243;BME280;50573;51.512;5.386;2023-11-19T15:54:20;167714.59;;;12.01;100.00
64243;BME280;50573;51.512;5.386;2023-11-19T16:04:24;167727.88;;;12.06;100.00
64243;BME280;50573;51.512;5.386;2023-11-19T16:14:27;167731.84;;;12.07;100.00
64243;BME280;50573;51.512;5.386;2023-11-19T16:24:32;167684.09;;;11.89;100.00
64243;BME280;50573;51.512;5.386;2023-11-19T16:34:35;167685.44;;;11.90;100.00
64243;BME280;50573;51.512;5.386;2023-11-19T16:44:45;167661.53;;;11.81;100.00
64243;BME280;50573;51.512;5.386;2023-11-19T16:54:48;167611.09;;;11.62;100.00
64243;BME280;50573;51.512;5.386;2023-11-19T17:04:52;167607.09;;;11.60;100.00
64243;BME280;50573;51.512;5.386;2023-11-19T17:14:55;167627.03;;;11.68;100.00
64243;BME280;50573;51.512;5.386;2023-11-19T17:25:07;167593.84;;;11.55;100.00
64243;BME280;50573;51.512;5.386;2023-11-19T17:35:11;167601.78;;;11.58;100.00
64243;BME280;50573;51.512;5.386;2023-11-19T17:45:16;167585.88;;;11.52;100.00
64243;BME280;50573;51.512;5.386;2023-11-19T17:55:19;167587.19;;;11.53;100.00
64243;BME280;50573;51.512;5.386;2023-11-19T18:05:26;167591.16;;;11.54;100.00
64243;BME280;50573;51.512;5.386;2023-11-19T18:15:30;167569.94;;;11.46;100.00
64243;BME280;50573;51.512;5.386;2023-11-19T18:25:38;167555.38;;;11.41;100.00
64243;BME280;50573;51.512;5.386;2023-11-19T18:35:41;167556.72;;;11.41;100.00
64243;BME280;50573;51.512;5.386;2023-11-19T18:45:46;167547.44;;;11.38;100.00
64243;BME280;50573;51.512;5.386;2023-11-19T18:55:49;167550.06;;;11.39;100.00
64243;BME280;50573;51.512;5.386;2023-11-19T19:05:54;167565.97;;;11.45;100.00
64243;BME280;50573;51.512;5.386;2023-11-19T19:15:57;167573.97;;;11.48;100.00
64243;BME280;50573;51.512;5.386;2023-11-19T19:26:01;167584.56;;;11.52;100.00
64243;BME280;50573;51.512;5.386;2023-11-19T19:36:06;167612.41;;;11.62;100.00
64243;BME280;50573;51.512;5.386;2023-11-19T19:46:12;167619.09;;;11.65;100.00
64243;BME280;50573;51.512;5.386;2023-11-19T19:56:15;167631.00;;;11.69;100.00
64243;BME280;50573;51.512;5.386;2023-11-19T20:06:20;167641.63;;;11.73;100.00
64243;BME280;50573;51.512;5.386;2023-11-19T20:16:26;167670.81;;;11.84;100.00
64243;BME280;50573;51.512;5.386;2023-11-19T20:26:31;167684.09;;;11.89;100.00
64243;BME280;50573;51.512;5.386;2023-11-19T20:36:34;167706.66;;;11.98;100.00
64243;BME280;50573;51.512;5.386;2023-11-19T20:46:39;167725.19;;;12.05;100.00
64243;BME280;50573;51.512;5.386;2023-11-19T20:56:42;167735.81;;;12.09;100.00
64243;BME280;50573;51.512;5.386;2023-11-19T21:06:46;167727.88;;;12.06;100.00
64243;BME280;50573;51.512;5.386;2023-11-19T21:16:52;167751.72;;;12.15;100.00
64243;BME280;50573;51.512;5.386;2023-11-19T21:26:56;167722.53;;;12.04;100.00
64243;BME280;50573;51.512;5.386;2023-11-19T21:36:59;167688.06;;;11.91;100.00
64243;BME280;50573;51.512;5.386;2023-11-19T21:47:04;167680.09;;;11.88;100.00
64243;BME280;50573;51.512;5.386;2023-11-19T21:57:08;167690.69;;;11.92;100.00
64243;BME280;50573;51.512;5.386;2023-11-19T22:07:13;167685.44;;;11.90;100.00
64243;BME280;50573;51.512;5.386;2023-11-19T22:17:16;167684.09;;;11.89;100.00
64243;BME280;50573;51.512;5.386;2023-11-19T22:27:20;167694.66;;;11.93;100.00
64243;BME280;50573;51.512;5.386;2023-11-19T22:37:23;167680.09;;;11.88;100.00
64243;BME280;50573;51.512;5.386;2023-11-19T22:47:28;167681.41;;;11.88;100.00
64243;BME280;50573;51.512;5.386;2023-11-19T22:57:31;167706.66;;;11.98;100.00
64243;BME280;50573;51.512;5.386;2023-11-19T23:07:36;167698.66;;;11.95;100.00
64243;BME280;50573;51.512;5.386;2023-11-19T23:17:39;167702.63;;;11.96;100.00
64243;BME280;50573;51.512;5.386;2023-11-19T23:27:43;167730.50;;;12.07;100.00
64243;BME280;50573;51.512;5.386;2023-11-19T23:37:46;167714.59;;;12.01;100.00
64243;BME280;50573;51.512;5.386;2023-11-19T23:47:51;167731.84;;;12.07;100.00
64243;BME280;50573;51.512;5.386;2023-11-19T23:57:54;167741.13;;;12.11;100.00
